Terminal Aerodrome Forecast
Issued by NWS

Home | Current Version | Previous Version | Text Only | Print | Product List | Glossary On
Versions: 1 2 3 4 5 6 7 8 9 10 11 12 13 14
000
FTUS46 KSGX 222300
TAFONT
TAF
KONT 222337Z 2300/2406 VRB04KT P6SM SCT020 SCT200
     FM230700 VRB04KT P6SM BKN010
     FM231300 VRB04KT P6SM FEW010 SCT200 WS010/03030KT
     FM231500 04018G30KT P6SM SCT200
     FM232200 04010G20KT P6SM SCT200=

USA.gov is the U.S. government's official web portal to all federal, state and local government web resources and services.